createdAt,value
2023-02-21T00:02:42.180Z,102031.06
2023-02-21T00:05:27.725Z,102031.06
2023-02-21T00:08:14.425Z,102034.75
2023-02-21T00:10:59.717Z,102027.59
2023-02-21T00:13:45.028Z,102023.38
2023-02-21T00:16:34.250Z,102022.59
2023-02-21T00:19:19.484Z,102025.47
2023-02-21T00:22:04.595Z,102025.47
2023-02-21T00:24:51.386Z,102029.13
2023-02-21T00:27:36.679Z,102029.13
2023-02-21T00:30:23.027Z,102033.88
2023-02-21T00:33:08.121Z,102035.47
2023-02-21T00:35:53.400Z,102033.63
2023-02-21T00:38:38.575Z,102034.16
2023-02-21T00:41:25.588Z,102031.53
2023-02-21T00:44:11.372Z,102033.41
2023-02-21T00:46:56.608Z,102025.47
2023-02-21T00:49:42.433Z,102029.94
2023-02-21T00:52:28.298Z,102027.31
2023-02-21T00:55:13.566Z,102029.13
2023-02-21T00:58:00.309Z,102028.59
2023-02-21T01:00:45.381Z,102033.88
2023-02-21T01:03:30.815Z,102019.88
2023-02-21T01:06:16.474Z,102019.88
2023-02-21T01:09:02.653Z,102014.38
2023-02-21T01:11:48.296Z,102004.84
2023-02-21T01:14:35.346Z,102000.38
2023-02-21T01:17:20.641Z,102005.66
2023-02-21T01:20:06.127Z,102005.88
2023-02-21T01:22:53.174Z,102008.50
2023-02-21T01:25:39.572Z,102000.84
2023-02-21T01:28:24.932Z,102001.66
2023-02-21T01:31:11.415Z,102013.78
2023-02-21T01:33:58.205Z,101999.00
2023-02-21T01:36:44.624Z,101997.41
2023-02-21T01:39:30.267Z,101988.72
2023-02-21T01:42:16.023Z,101985.81
2023-02-21T01:45:03.187Z,101993.19
2023-02-21T01:47:50.892Z,101985.81
2023-02-21T01:50:40.731Z,101989.00
2023-02-21T01:53:29.638Z,101988.19
2023-02-21T01:56:16.141Z,101987.97
2023-02-21T01:59:02.742Z,101981.09
2023-02-21T02:01:57.567Z,101980.28
2023-02-21T02:04:44.589Z,101978.69
2023-02-21T02:07:30.343Z,101980.53
2023-02-21T02:10:15.437Z,101978.69
2023-02-21T02:13:10.863Z,101982.69
2023-02-21T02:15:50.544Z,101979.00
2023-02-21T02:18:45.891Z,101979.00
2023-02-21T02:21:51.470Z,101981.38
2023-02-21T02:24:39.222Z,101978.75
2023-02-21T02:27:36.685Z,101979.56
2023-02-21T02:30:44.569Z,101980.34
2023-02-21T02:33:41.360Z,101976.91
2023-02-21T02:36:15.611Z,101974.81
2023-02-21T02:38:54.133Z,101966.91
2023-02-21T02:41:29.703Z,101967.72
2023-02-21T02:44:05.822Z,101963.50
2023-02-21T02:46:35.783Z,101966.91
2023-02-21T02:49:07.115Z,101978.53
2023-02-21T02:51:37.347Z,101976.69
2023-02-21T02:54:07.489Z,101980.09
2023-02-21T02:56:36.968Z,101984.34
2023-02-21T02:59:08.673Z,101979.06
2023-02-21T03:02:01.507Z,101979.06
2023-02-21T03:04:50.320Z,101975.41
2023-02-21T03:07:26.948Z,101977.47
2023-02-21T03:10:04.872Z,101976.69
2023-02-21T03:12:39.867Z,101967.41
2023-02-21T03:15:13.562Z,101962.38
2023-02-21T03:17:44.694Z,101965.00
2023-02-21T03:20:15.876Z,101971.88
2023-02-21T03:22:46.868Z,101969.50
2023-02-21T03:25:17.329Z,101956.06
2023-02-21T03:27:48.755Z,101963.41
2023-02-21T03:30:30.023Z,101967.91
2023-02-21T03:32:59.028Z,101956.78
2023-02-21T03:35:30.404Z,101961.00
2023-02-21T03:38:00.785Z,101957.34
2023-02-21T03:40:31.342Z,101957.34
2023-02-21T03:43:02.361Z,101963.41
2023-02-21T03:45:37.047Z,101969.50
2023-02-21T03:48:26.161Z,101961.81
2023-02-21T03:51:01.970Z,101954.69
2023-02-21T03:53:37.066Z,101950.44
2023-02-21T03:56:06.857Z,101952.88
2023-02-21T03:58:49.966Z,101964.22
2023-02-21T04:01:18.068Z,101963.16
2023-02-21T04:03:45.992Z,101952.59
2023-02-21T04:06:14.654Z,101954.69
2023-02-21T04:08:43.887Z,101962.63
2023-02-21T04:11:11.714Z,101953.91
2023-02-21T04:13:42.498Z,101959.16
2023-02-21T04:16:10.355Z,101956.53
2023-02-21T04:18:39.318Z,101957.34
2023-02-21T04:21:09.571Z,101956.31
2023-02-21T04:23:37.907Z,101954.44
2023-02-21T04:26:08.091Z,101945.97
2023-02-21T04:28:42.426Z,101949.91
2023-02-21T04:31:10.214Z,101946.50
2023-02-21T04:33:38.277Z,101950.41
2023-02-21T04:36:06.708Z,101933.78
2023-02-21T04:38:41.852Z,101938.50
2023-02-21T04:41:11.082Z,101937.22
2023-02-21T04:43:39.256Z,101939.03
2023-02-21T04:46:07.281Z,101942.50
2023-02-21T04:48:35.130Z,101935.59
2023-02-21T04:51:15.946Z,101934.56
2023-02-21T04:53:44.527Z,101934.00
2023-02-21T04:56:13.811Z,101940.34
2023-02-21T04:58:45.689Z,101939.28
2023-02-21T05:01:14.740Z,101940.34
2023-02-21T05:03:42.728Z,101939.28
2023-02-21T05:06:10.856Z,101949.81
2023-02-21T05:08:38.454Z,101942.97
2023-02-21T05:11:08.793Z,101941.34
2023-02-21T05:13:37.939Z,101946.63
2023-02-21T05:16:06.351Z,101950.06
2023-02-21T05:18:34.632Z,101950.34
2023-02-21T05:21:03.457Z,101952.97
2023-02-21T05:23:39.954Z,101957.19
2023-02-21T05:26:10.188Z,101954.00
2023-02-21T05:28:41.206Z,101957.66
2023-02-21T05:31:09.752Z,101960.53
2023-02-21T05:33:37.621Z,101956.06
2023-02-21T05:36:06.167Z,101949.16
2023-02-21T05:38:34.003Z,101944.47
2023-02-21T05:41:01.896Z,101953.16
2023-02-21T05:43:33.715Z,101958.44
2023-02-21T05:46:03.014Z,101954.22
2023-02-21T05:48:30.934Z,101958.44
2023-02-21T05:50:58.681Z,101954.00
2023-02-21T05:53:26.577Z,101950.78
2023-02-21T05:55:54.327Z,101952.88
2023-02-21T05:58:22.082Z,101952.88
2023-02-21T06:00:49.825Z,101959.97
2023-02-21T06:03:19.027Z,101960.78
2023-02-21T06:05:46.805Z,101963.41
2023-02-21T06:08:14.611Z,101968.69
2023-02-21T06:10:42.446Z,101955.25
2023-02-21T06:13:10.176Z,101957.09
2023-02-21T06:15:38.011Z,101957.09
2023-02-21T06:18:05.843Z,101966.06
2023-02-21T06:20:35.013Z,101957.09
2023-02-21T06:23:02.832Z,101961.34
2023-02-21T06:25:30.604Z,101962.94
2023-02-21T06:27:58.501Z,101962.13
2023-02-21T06:30:26.550Z,101965.56
2023-02-21T06:32:54.327Z,101968.22
2023-02-21T06:35:22.119Z,101970.28
2023-02-21T06:37:51.313Z,101971.59
2023-02-21T06:40:19.212Z,101968.13
2023-02-21T06:42:47.468Z,101964.44
2023-02-21T06:45:15.246Z,101968.69
2023-02-21T06:47:43.062Z,101975.00
2023-02-21T06:50:10.952Z,101975.81
2023-02-21T06:52:38.744Z,101966.88
2023-02-21T06:55:08.955Z,101967.09
2023-02-21T06:57:36.751Z,101959.16
2023-02-21T07:00:05.199Z,101975.00
2023-02-21T07:02:33.020Z,101978.19
2023-02-21T07:05:00.872Z,101967.63
2023-02-21T07:07:28.699Z,101970.28
2023-02-21T07:09:56.477Z,101978.44
2023-02-21T07:12:25.655Z,101971.59
2023-02-21T07:14:53.464Z,101963.66
2023-02-21T07:17:21.297Z,101961.03
2023-02-21T07:19:49.078Z,101974.78
2023-02-21T07:22:16.828Z,101972.34
2023-02-21T07:24:44.627Z,101975.56
2023-02-21T07:27:12.404Z,101969.25
2023-02-21T07:29:41.572Z,101965.81
2023-02-21T07:32:09.334Z,101965.00
2023-02-21T07:34:37.176Z,101972.91
2023-02-21T07:37:04.946Z,101977.16
2023-02-21T07:39:32.722Z,101977.16
2023-02-21T07:42:00.456Z,101985.88
2023-02-21T07:44:32.340Z,101987.72
2023-02-21T07:47:01.723Z,101988.53
2023-02-21T07:49:29.624Z,101990.09
2023-02-21T07:51:57.372Z,101986.47
2023-02-21T07:54:25.155Z,101989.91
2023-02-21T07:56:53.199Z,101993.56
2023-02-21T07:59:20.960Z,101984.63
2023-02-21T08:01:48.993Z,101991.50
2023-02-21T08:04:21.054Z,102000.53
2023-02-21T08:06:49.338Z,101994.69
2023-02-21T08:09:17.339Z,101988.84
2023-02-21T08:11:45.162Z,101996.75
2023-02-21T08:14:12.974Z,101994.59
2023-02-21T08:16:40.785Z,101995.88
2023-02-21T08:19:09.784Z,101990.81
2023-02-21T08:21:39.381Z,101986.59
2023-02-21T08:24:07.135Z,101983.63
2023-02-21T08:26:34.938Z,101981.81
2023-02-21T08:29:03.761Z,101979.97
2023-02-21T08:31:31.623Z,101980.78
2023-02-21T08:33:59.529Z,101981.50
2023-02-21T08:36:32.831Z,101983.56
2023-02-21T08:39:01.979Z,101981.72
2023-02-21T08:41:36.768Z,101983.09
2023-02-21T08:44:04.560Z,101982.28
2023-02-21T08:46:32.459Z,101979.41
2023-02-21T08:49:00.277Z,101981.81
2023-02-21T08:51:28.672Z,101984.69
2023-02-21T08:53:56.552Z,101977.00
2023-02-21T08:56:26.696Z,101981.81
2023-02-21T08:58:55.132Z,101970.22
2023-02-21T09:01:24.045Z,101977.09
2023-02-21T09:03:52.269Z,101969.16
2023-02-21T09:06:20.109Z,101971.59
2023-02-21T09:08:47.852Z,101967.88
2023-02-21T09:11:15.904Z,101969.00
2023-02-21T09:13:45.016Z,101962.47
2023-02-21T09:16:12.829Z,101964.34
2023-02-21T09:18:40.644Z,101963.28
2023-02-21T09:21:08.469Z,101964.06
2023-02-21T09:23:36.266Z,101962.00
2023-02-21T09:26:04.070Z,101960.97
2023-02-21T09:28:32.309Z,101962.53
2023-02-21T09:31:01.501Z,101959.34
2023-02-21T09:33:30.907Z,101963.09
2023-02-21T09:35:58.680Z,101954.16
2023-02-21T09:38:26.454Z,101951.03
2023-02-21T09:40:59.120Z,101947.88
2023-02-21T09:43:34.159Z,101944.69
2023-02-21T09:46:06.363Z,101945.50
2023-02-21T09:48:34.678Z,101941.78
2023-02-21T09:51:06.556Z,101940.50
2023-02-21T09:53:38.169Z,101936.59
2023-02-21T09:56:12.434Z,101944.34
2023-02-21T09:58:43.303Z,101935.38
2023-02-21T10:01:31.344Z,101937.06
2023-02-21T10:04:08.792Z,101937.53
2023-02-21T10:06:44.669Z,101938.88
2023-02-21T10:09:25.767Z,101933.09
2023-02-21T10:12:02.605Z,101939.69
2023-02-21T10:14:38.377Z,101941.28
2023-02-21T10:17:16.835Z,101932.31
2023-02-21T10:19:48.308Z,101929.44
2023-02-21T10:22:20.958Z,101937.66
2023-02-21T10:24:49.673Z,101939.78
2023-02-21T10:27:20.001Z,101938.03
2023-02-21T10:29:54.632Z,101942.31
2023-02-21T10:32:25.529Z,101944.16
2023-02-21T10:34:55.445Z,101942.81
2023-02-21T10:37:35.088Z,101937.28
2023-02-21T10:40:08.980Z,101948.13
2023-02-21T10:42:42.471Z,101944.19
2023-02-21T10:45:13.357Z,101949.47
2023-02-21T10:47:54.717Z,101941.00
2023-02-21T10:50:42.408Z,101941.53
2023-02-21T10:53:10.990Z,101939.91
2023-02-21T10:55:38.891Z,101942.56
2023-02-21T10:58:10.434Z,101939.97
2023-02-21T11:00:42.083Z,101947.91
2023-02-21T11:06:48.293Z,101929.38
2023-02-21T11:09:32.227Z,101934.75
2023-02-21T11:12:06.512Z,101933.56
2023-02-21T11:14:35.625Z,101934.91
2023-02-21T11:17:16.418Z,101924.03
2023-02-21T11:19:50.398Z,101927.75
2023-02-21T11:22:22.330Z,101921.84
2023-02-21T11:25:02.181Z,101911.22
2023-02-21T11:27:32.511Z,101921.72
2023-02-21T11:30:02.620Z,101917.56
2023-02-21T11:32:36.355Z,101928.38
2023-02-21T11:35:07.838Z,101916.56
2023-02-21T11:37:49.977Z,101915.78
2023-02-21T11:40:35.649Z,101918.31
2023-02-21T11:43:17.789Z,101918.47
2023-02-21T11:46:05.243Z,101915.00
2023-02-21T11:48:38.372Z,101918.16
2023-02-21T11:51:15.061Z,101914.97
2023-02-21T11:53:45.084Z,101911.81
2023-02-21T11:56:21.532Z,101912.44
2023-02-21T11:58:59.008Z,101915.75
2023-02-21T12:01:32.883Z,101912.09
2023-02-21T12:04:29.377Z,101908.78
2023-02-21T12:07:05.787Z,101901.63
2023-02-21T12:09:45.112Z,101901.75
2023-02-21T12:12:28.615Z,101897.34
2023-02-21T12:15:07.058Z,101908.22
2023-02-21T12:17:52.146Z,101902.22
2023-02-21T12:20:28.869Z,101890.81
2023-02-21T12:23:18.057Z,101903.13
2023-02-21T12:26:13.274Z,101885.91
2023-02-21T12:28:59.543Z,101896.22
2023-02-21T12:31:39.649Z,101893.03
2023-02-21T12:34:17.930Z,101893.19
2023-02-21T12:37:03.959Z,101883.50
2023-02-21T12:39:56.146Z,101881.09
2023-02-21T12:42:41.939Z,101882.16
2023-02-21T12:45:23.454Z,101868.69
2023-02-21T12:47:57.995Z,101871.66
2023-02-21T12:50:33.468Z,101872.59
2023-02-21T12:53:04.527Z,101870.34
2023-02-21T12:55:35.660Z,101867.47
2023-02-21T12:58:14.075Z,101868.38
2023-02-21T13:00:47.592Z,101863.50
2023-02-21T13:03:27.674Z,101862.38
2023-02-21T13:06:00.482Z,101867.75
2023-02-21T13:08:33.124Z,101863.28
2023-02-21T13:11:11.267Z,101858.38
2023-02-21T13:13:40.846Z,101850.75
2023-02-21T13:16:12.991Z,101858.84
2023-02-21T13:18:44.815Z,101858.94
2023-02-21T13:21:24.299Z,101852.91
2023-02-21T13:23:57.285Z,101857.31
2023-02-21T13:26:45.733Z,101845.91
2023-02-21T13:29:20.892Z,101840.28
2023-02-21T13:32:00.155Z,101838.06
2023-02-21T13:34:31.531Z,101830.47
2023-02-21T13:37:05.998Z,101841.69
2023-02-21T13:39:37.530Z,101837.84
2023-02-21T13:42:09.510Z,101836.75
2023-02-21T13:44:43.306Z,101826.78
2023-02-21T13:47:15.346Z,101822.19
2023-02-21T13:50:01.074Z,101824.53
2023-02-21T13:52:53.910Z,101826.88
2023-02-21T13:55:31.440Z,101815.47
2023-02-21T13:58:46.728Z,101821.94
2023-02-21T14:01:50.079Z,101809.97
2023-02-21T14:05:01.248Z,101815.00
2023-02-21T14:07:43.613Z,101815.34
2023-02-21T14:10:32.944Z,101811.41
2023-02-21T14:13:05.080Z,101812.19
2023-02-21T14:15:43.117Z,101814.09
2023-02-21T14:18:23.553Z,101819.81
2023-02-21T14:20:55.157Z,101812.06
2023-02-21T14:23:26.769Z,101817.44
2023-02-21T14:26:01.183Z,101821.25
2023-02-21T14:28:51.797Z,101810.03
2023-02-21T14:31:55.041Z,101800.41
2023-02-21T14:34:28.690Z,101803.53
2023-02-21T14:37:01.107Z,101803.53
2023-02-21T14:39:35.609Z,101804.34
2023-02-21T14:42:45.061Z,101810.69
2023-02-21T14:45:24.901Z,101799.16
2023-02-21T14:48:05.434Z,101803.41
2023-02-21T14:50:44.776Z,101800.41
2023-02-21T14:53:43.998Z,101801.94
2023-02-21T14:56:35.638Z,101806.22
2023-02-21T14:59:26.848Z,101791.63
2023-02-21T15:02:03.926Z,101790.53
2023-02-21T15:04:38.261Z,101790.19
2023-02-21T15:07:18.740Z,101786.69
2023-02-21T15:09:47.190Z,101786.25
2023-02-21T15:12:18.272Z,101795.00
2023-02-21T15:14:51.247Z,101784.25
2023-02-21T15:17:23.087Z,101779.31
2023-02-21T15:20:05.594Z,101775.47
2023-02-21T15:22:34.847Z,101778.63
2023-02-21T15:25:21.031Z,101777.53
2023-02-21T15:28:00.711Z,101789.88
2023-02-21T15:30:34.239Z,101781.00
2023-02-21T15:33:07.759Z,101774.38
2023-02-21T15:35:38.541Z,101775.03
2023-02-21T15:38:16.114Z,101778.72
2023-02-21T15:40:44.747Z,101784.00
2023-02-21T15:43:32.296Z,101776.22
2023-02-21T15:46:03.026Z,101780.97
2023-02-21T15:48:31.177Z,101775.25
2023-02-21T15:51:04.792Z,101774.13
2023-02-21T15:53:34.172Z,101774.59
2023-02-21T15:56:21.572Z,101767.63
2023-02-21T15:59:11.609Z,101765.72
2023-02-21T16:01:39.962Z,101774.25
2023-02-21T16:04:22.466Z,101772.69
2023-02-21T16:06:53.347Z,101771.25
2023-02-21T16:09:31.349Z,101762.22
2023-02-21T16:12:02.248Z,101761.00
2023-02-21T16:14:40.295Z,101764.66
2023-02-21T16:17:22.437Z,101758.84
2023-02-21T16:19:53.849Z,101763.75
2023-02-21T16:22:29.323Z,101761.75
2023-02-21T16:25:20.741Z,101752.09
2023-02-21T16:27:51.243Z,101761.28
2023-02-21T16:30:21.565Z,101761.28
2023-02-21T16:32:51.166Z,101747.72
2023-02-21T16:35:21.571Z,101758.03
2023-02-21T16:37:50.802Z,101754.88
2023-02-21T16:40:24.896Z,101757.09
2023-02-21T16:42:54.056Z,101756.31
2023-02-21T16:45:22.182Z,101758.56
2023-02-21T16:47:52.158Z,101760.78
2023-02-21T16:50:23.497Z,101760.31
2023-02-21T16:52:51.358Z,101760.66
2023-02-21T16:55:20.959Z,101758.63
2023-02-21T16:57:50.253Z,101760.06
2023-02-21T17:00:21.866Z,101761.94
2023-02-21T17:02:50.024Z,101752.31
2023-02-21T17:05:18.551Z,101752.66
2023-02-21T17:07:46.329Z,101747.59
2023-02-21T17:10:14.377Z,101748.38
2023-02-21T17:12:43.653Z,101751.72
2023-02-21T17:15:11.980Z,101745.69
2023-02-21T17:17:40.546Z,101747.94
2023-02-21T17:20:15.564Z,101754.09
2023-02-21T17:22:43.369Z,101742.56
2023-02-21T17:25:12.144Z,101747.13
2023-02-21T17:27:39.887Z,101742.09
2023-02-21T17:30:11.355Z,101755.56
2023-02-21T17:32:39.268Z,101749.22
2023-02-21T17:35:07.335Z,101754.31
2023-02-21T17:37:35.084Z,101754.84
2023-02-21T17:40:05.069Z,101740.84
2023-02-21T17:42:32.872Z,101739.88
2023-02-21T17:45:02.211Z,101745.16
2023-02-21T17:47:31.383Z,101742.00
2023-02-21T17:50:02.503Z,101742.75
2023-02-21T17:52:31.197Z,101738.53
2023-02-21T17:54:59.138Z,101733.16
2023-02-21T17:57:26.892Z,101734.69
2023-02-21T17:59:54.795Z,101736.28
2023-02-21T18:02:22.537Z,101737.88
2023-02-21T18:04:51.707Z,101736.75
2023-02-21T18:07:19.529Z,101738.34
2023-02-21T18:09:47.600Z,101741.03
2023-02-21T18:12:16.391Z,101735.66
2023-02-21T18:14:44.202Z,101744.47
2023-02-21T18:17:12.562Z,101745.25
2023-02-21T18:19:40.341Z,101745.25
2023-02-21T18:22:09.747Z,101733.72
2023-02-21T18:24:38.690Z,101741.03
2023-02-21T18:27:06.458Z,101735.66
2023-02-21T18:29:34.240Z,101742.13
2023-02-21T18:32:02.027Z,101736.75
2023-02-21T18:34:29.815Z,101741.31
2023-02-21T18:36:57.652Z,101730.91
2023-02-21T18:39:26.954Z,101728.22
2023-02-21T18:41:54.835Z,101735.19
2023-02-21T18:44:22.772Z,101730.91
2023-02-21T18:46:54.028Z,101732.81
2023-02-21T18:49:23.037Z,101722.06
2023-02-21T18:51:51.402Z,101726.63
2023-02-21T18:54:19.831Z,101727.75
2023-02-21T18:56:50.379Z,101718.56
2023-02-21T18:59:19.153Z,101725.88
2023-02-21T19:01:49.705Z,101722.38
2023-02-21T19:04:17.548Z,101725.88
2023-02-21T19:06:45.516Z,101725.88
2023-02-21T19:09:13.830Z,101725.06
2023-02-21T19:11:41.751Z,101719.69
2023-02-21T19:14:10.931Z,101719.25
2023-02-21T19:16:39.059Z,101721.94
2023-02-21T19:19:07.091Z,101719.25
2023-02-21T19:21:34.978Z,101720.34
2023-02-21T19:24:04.118Z,101716.88
2023-02-21T19:26:32.090Z,101714.19
2023-02-21T19:28:59.926Z,101712.63
2023-02-21T19:31:29.240Z,101703.75
2023-02-21T19:33:57.134Z,101701.06
2023-02-21T19:36:25.025Z,101706.44
2023-02-21T19:38:52.838Z,101705.66
2023-02-21T19:41:21.677Z,101702.19
2023-02-21T19:43:49.482Z,101701.06
2023-02-21T19:46:21.960Z,101703.75
2023-02-21T19:48:51.602Z,101699.50
2023-02-21T19:51:21.734Z,101697.59
2023-02-21T19:53:49.737Z,101692.56
2023-02-21T19:56:17.866Z,101700.63
2023-02-21T19:58:47.192Z,101699.81
2023-02-21T20:01:15.680Z,101692.56
2023-02-21T20:03:44.315Z,101697.13
2023-02-21T20:06:13.517Z,101694.78
2023-02-21T20:08:43.916Z,101694.00
2023-02-21T20:11:11.809Z,101708.22
2023-02-21T20:13:39.610Z,101703.94
2023-02-21T20:16:07.379Z,101698.56
2023-02-21T20:18:35.153Z,101701.25
2023-02-21T20:21:03.115Z,101702.41
2023-02-21T20:23:32.229Z,101703.16
2023-02-21T20:25:59.961Z,101693.53
2023-02-21T20:28:27.839Z,101703.94
2023-02-21T20:30:55.719Z,101694.34
2023-02-21T20:33:24.691Z,101694.34
2023-02-21T20:35:53.016Z,101691.66
2023-02-21T20:38:21.496Z,101691.66
2023-02-21T20:40:50.771Z,101682.78
2023-02-21T20:43:18.531Z,101686.28
2023-02-21T20:45:46.356Z,101685.47
2023-02-21T20:48:14.306Z,101692.22
2023-02-21T20:50:42.575Z,101687.44
2023-02-21T20:53:11.303Z,101686.47
2023-02-21T20:55:40.252Z,101676.16
2023-02-21T20:58:10.430Z,101674.72
2023-02-21T21:00:38.542Z,101679.75
2023-02-21T21:03:06.939Z,101672.47
2023-02-21T21:05:34.732Z,101667.09
2023-02-21T21:08:02.499Z,101664.41
2023-02-21T21:10:30.294Z,101666.66
2023-02-21T21:12:58.270Z,101662.84
2023-02-21T21:15:27.714Z,101663.97
2023-02-21T21:17:55.879Z,101667.75
2023-02-21T21:20:27.035Z,101664.31
2023-02-21T21:22:54.846Z,101671.56
2023-02-21T21:25:23.593Z,101674.25
2023-02-21T21:27:51.956Z,101675.38
2023-02-21T21:30:22.876Z,101674.56
2023-02-21T21:32:52.117Z,101677.59
2023-02-21T21:35:20.826Z,101673.00
2023-02-21T21:37:49.116Z,101669.88
2023-02-21T21:40:17.476Z,101669.06
2023-02-21T21:42:46.809Z,101665.94
2023-02-21T21:45:24.602Z,101665.94
2023-02-21T21:47:58.402Z,101664.69
2023-02-21T21:50:26.762Z,101656.97
2023-02-21T21:52:57.449Z,101653.47
2023-02-21T21:55:28.603Z,101653.03
2023-02-21T21:57:58.691Z,101654.94
2023-02-21T22:00:29.034Z,101647.97
2023-02-21T22:03:01.917Z,101639.13
2023-02-21T22:05:31.579Z,101635.97
2023-02-21T22:08:00.348Z,101632.50
2023-02-21T22:10:29.143Z,101623.97
2023-02-21T22:12:59.961Z,101617.84
2023-02-21T22:15:30.232Z,101623.50
2023-02-21T22:18:03.800Z,101613.22
2023-02-21T22:20:31.821Z,101609.31
2023-02-21T22:23:00.051Z,101616.13
2023-02-21T22:25:30.245Z,101615.97
2023-02-21T22:27:58.957Z,101615.88
2023-02-21T22:30:26.879Z,101604.97
2023-02-21T22:32:54.691Z,101606.56
2023-02-21T22:35:25.150Z,101601.84
2023-02-21T22:37:55.202Z,101589.38
2023-02-21T22:40:25.799Z,101590.03
2023-02-21T22:42:54.374Z,101584.19
2023-02-21T22:45:23.638Z,101574.09
2023-02-21T22:47:53.925Z,101584.41
2023-02-21T22:50:24.243Z,101575.88
2023-02-21T22:52:52.447Z,101582.69
2023-02-21T22:55:20.203Z,101570.69
2023-02-21T22:57:47.951Z,101564.09
2023-02-21T23:00:20.215Z,101574.03
2023-02-21T23:02:48.641Z,101569.34
2023-02-21T23:05:19.397Z,101566.19
2023-02-21T23:07:51.292Z,101565.72
2023-02-21T23:10:23.686Z,101551.78
2023-02-21T23:12:52.600Z,101559.09
2023-02-21T23:15:22.320Z,101550.88
2023-02-21T23:17:51.528Z,101544.72
2023-02-21T23:20:22.609Z,101532.72
2023-02-21T23:22:53.731Z,101532.28
2023-02-21T23:25:25.497Z,101523.78
2023-02-21T23:27:56.626Z,101524.91
2023-02-21T23:30:27.512Z,101528.69
2023-02-21T23:32:56.548Z,101527.09
2023-02-21T23:35:24.330Z,101526.63
2023-02-21T23:37:53.494Z,101520.81
2023-02-21T23:40:23.471Z,101511.97
2023-02-21T23:42:55.457Z,101511.50
2023-02-21T23:45:25.017Z,101514.53
2023-02-21T23:47:54.927Z,101512.16
2023-02-21T23:50:30.416Z,101520.53
2023-02-21T23:53:00.152Z,101519.00
2023-02-21T23:55:29.885Z,101517.41
2023-02-21T23:57:59.847Z,101518.50
